Hildegaard — C6QU3 — position and weather

sailwx.info

Track history (hours):
 
Tides and Currents Weather Stations Pressure Air Temp Water Temp Dewpoint Dewpoint Depression Visibility Wind Speed Wind Dir Waves Ship Positions

Hildegaard

Last reported at 2015-Sep-04 01:31 UTC. Time now 2015-Sep-04 01:39 UTC.
Position N 54°02' E 000°00'.

Length 248 m; draft 8.6 m.

Type: Ship (hazmat cat A). MMSI: 308574000.

Date/timePositionNaut miles runAvg speedWind from/ knotsBaromVisibWave heightAir tempDewpointWater temp
2015-Sep-04 01:31N 54°02' E 000°00'0 0.0
2015-Sep-04 00:32N 54°02' E 000°00'0 0.0
2015-Sep-03 23:16N 54°02' E 000°00'0 0.1
2015-Sep-03 22:31N 54°02' W 000°00'0 0.0
2015-Sep-03 21:31N 54°02' W 000°00'0 0.0
2015-Sep-03 20:31N 54°02' W 000°00'0 0.0
2015-Sep-03 19:28N 54°02' W 000°00'0 0.0
2015-Sep-03 18:31N 54°02' W 000°00'0 0.0
2015-Sep-03 17:31N 54°02' W 000°00'0 0.0
2015-Sep-03 16:31N 54°02' W 000°00'0 0.0
2015-Sep-03 15:33N 54°02' W 000°00'4 3.6
2015-Sep-03 14:33N 53°59' E 000°04'5 5.4
2015-Sep-03 13:33N 53°54' E 000°09'5 4.8
2015-Sep-03 12:33N 53°51' E 000°14'5 5.2
2015-Sep-03 11:33N 53°47' E 000°19'5 5.2
2015-Sep-03 10:33N 53°42' E 000°23'9 8.6
2015-Sep-03 09:33N 53°34' E 000°17'1010.1
2015-Sep-03 08:33N 53°35' W 000°00'6 6.0
2015-Sep-03 07:32N 53°38' W 000°10'0 0.0
2015-Sep-03 06:32N 53°38' W 000°10'0 0.0
2015-Sep-03 05:32N 53°38' W 000°10'0 0.0
2015-Sep-03 04:32N 53°38' W 000°10'0 0.0
2015-Sep-03 03:32N 53°38' W 000°10'0 0.0
2015-Sep-03 02:32N 53°38' W 000°10'0 0.0
2015-Sep-03 01:32N 53°38' W 000°10'0 0.0
2015-Sep-03 00:32N 53°38' W 000°10'0 0.0
2015-Sep-02 23:32N 53°38' W 000°10'0 0.0
2015-Sep-02 22:32N 53°38' W 000°10'0 0.0
2015-Sep-02 21:32N 53°38' W 000°10'0 0.0
2015-Sep-02 20:32N 53°38' W 000°10'0 0.0
2015-Sep-02 19:32N 53°38' W 000°10'0 0.0
2015-Sep-02 18:32N 53°38' W 000°10'0 0.0
2015-Sep-02 17:29N 53°38' W 000°10'0 0.0
2015-Sep-02 16:32N 53°38' W 000°10'0 0.0
2015-Sep-02 15:32N 53°38' W 000°10'0 0.0
2015-Sep-02 14:29N 53°38' W 000°10'0 0.0
2015-Sep-02 13:32N 53°38' W 000°10'0 0.0
2015-Sep-02 12:32N 53°38' W 000°10'0 0.0
2015-Sep-02 11:32N 53°38' W 000°10'0 0.0
2015-Sep-02 10:32N 53°38' W 000°10'0 0.0
2015-Sep-02 09:32N 53°38' W 000°10'0 0.0
2015-Sep-02 08:32N 53°38' W 000°10'0 0.0
2015-Sep-02 07:32N 53°38' W 000°10'0 0.0
2015-Sep-02 06:32N 53°38' W 000°10'0 0.0
2015-Sep-02 05:32N 53°38' W 000°10'0 0.0
2015-Sep-02 04:32N 53°38' W 000°10'0 0.0
2015-Sep-02 03:32N 53°38' W 000°10'0 0.0
2015-Sep-02 02:32N 53°38' W 000°10'0 0.0
2015-Sep-02 01:32N 53°38' W 000°10'0 0.0
2015-Sep-02 00:32N 53°38' W 000°10'0 0.0
2015-Sep-01 23:32N 53°38' W 000°10'0 0.0
2015-Sep-01 22:32N 53°38' W 000°10'0 0.0
2015-Sep-01 21:32N 53°38' W 000°10'0 0.0
2015-Sep-01 20:34N 53°38' W 000°10'2 1.7
2015-Sep-01 19:33N 53°37' W 000°07'8 7.6
2015-Sep-01 18:33N 53°35' E 000°05'8 8.3
2015-Sep-01 17:33N 53°36' E 000°19'5 4.8
2015-Sep-01 16:33N 53°40' E 000°24'5 4.8
2015-Sep-01 15:30N 53°45' E 000°26'7 7.2
2015-Sep-01 14:33N 53°51' E 000°21'6 6.2
2015-Sep-01 13:33N 53°57' E 000°18'1 1.0
2015-Sep-01 12:34N 53°58' E 000°18'1 0.8
2015-Sep-01 11:33N 53°57' E 000°18'1 1.0
2015-Sep-01 10:33N 53°56' E 000°19'1 0.7
2015-Sep-01 09:33N 53°57' E 000°18'8 8.3
2015-Sep-01 08:33N 54°04' E 000°13'1212.1
2015-Sep-01 07:34N 54°14' W 000°01'1313.0
2015-Sep-01 06:34N 54°24' W 000°14'1313.5
2015-Sep-01 05:34N 54°35' W 000°29'1313.0
2015-Sep-01 04:32N 54°40' W 000°50'1010.2
2015-Sep-01 03:33N 54°40' W 001°07'3 3.2
2015-Sep-01 02:31N 54°37' W 001°10'0 0.0
2015-Sep-01 01:29N 54°37' W 001°10'0 0.0
2015-Aug-31 23:26N 54°37' W 001°10'0 0.0
2015-Aug-31 22:29N 54°37' W 001°10'0 0.0
2015-Aug-31 20:32N 54°37' W 001°10'0 0.0
2015-Aug-31 19:29N 54°37' W 001°10'0 0.0
2015-Aug-31 16:09N 54°37' W 001°10'0 0.0
2015-Aug-31 15:23N 54°37' W 001°10'0 0.0
2015-Aug-31 14:26N 54°37' W 001°10'0 0.0
2015-Aug-31 13:26N 54°37' W 001°10'0 0.0
2015-Aug-31 12:23N 54°37' W 001°10'0 0.0
2015-Aug-31 11:14N 54°37' W 001°10'0 0.0
2015-Aug-31 10:29N 54°37' W 001°10'0 0.0
2015-Aug-31 09:14N 54°37' W 001°10'0 0.0
2015-Aug-31 08:32N 54°37' W 001°10'0 0.0
2015-Aug-31 07:29N 54°37' W 001°10'1 0.6
2015-Aug-31 06:33N 54°38' W 001°09'6 6.0
2015-Aug-31 05:33N 54°43' W 001°04'2 2.1
2015-Aug-31 04:31N 54°42' W 001°00'0 0.0
2015-Aug-31 03:31N 54°42' W 001°00'0 0.0
2015-Aug-31 02:31N 54°42' W 001°00'0 0.1
2015-Aug-31 01:31N 54°42' W 001°01'0 0.2
2015-Aug-31 00:31N 54°42' W 001°01'0 0.0
2015-Aug-30 23:28N 54°42' W 001°01'0 0.0
2015-Aug-30 22:28N 54°42' W 001°01'0 0.0
2015-Aug-30 21:28N 54°42' W 001°01'0 0.0
2015-Aug-30 20:31N 54°42' W 001°01'0 0.0
2015-Aug-30 19:31N 54°42' W 001°01'0 0.1
2015-Aug-30 18:28N 54°42' W 001°01'0 0.2
2015-Aug-30 17:31N 54°42' W 001°01'0 0.1
2015-Aug-30 16:31N 54°42' W 001°00'0 0.0
2015-Aug-30 15:31N 54°42' W 001°00'0 0.1
2015-Aug-30 14:31N 54°42' W 001°00'0 0.2
2015-Aug-30 13:28N 54°42' W 001°01'0 0.0
2015-Aug-30 12:31N 54°42' W 001°01'0 0.0
2015-Aug-30 11:31N 54°42' W 001°01'0 0.0
2015-Aug-30 10:31N 54°42' W 001°01'0 0.0
2015-Aug-30 09:31N 54°42' W 001°01'0 0.0
2015-Aug-30 08:31N 54°42' W 001°01'0 0.0
2015-Aug-30 07:31N 54°42' W 001°01'0 0.2
2015-Aug-30 06:25N 54°42' W 001°00'0 0.1
2015-Aug-30 05:31N 54°42' W 001°00'0 0.0
2015-Aug-30 04:31N 54°42' W 001°00'0 0.0
2015-Aug-30 03:31N 54°42' W 001°00'0 0.0
2015-Aug-30 02:31N 54°42' W 001°00'0 0.0
2015-Aug-30 01:22N 54°42' W 001°00'0 0.2
2015-Aug-30 00:31N 54°42' W 001°00'0 0.1
2015-Aug-29 23:31N 54°42' W 001°01'0 0.0
2015-Aug-29 22:31N 54°42' W 001°01'0 0.0
2015-Aug-29 21:31N 54°42' W 001°01'0 0.0
2015-Aug-29 20:28N 54°42' W 001°01'0 0.1
2015-Aug-29 19:31N 54°42' W 001°00'0 0.1
2015-Aug-29 18:31N 54°42' W 001°00'0 0.1
2015-Aug-29 17:31N 54°42' W 001°00'0 0.0
2015-Aug-29 16:31N 54°42' W 001°00'0 0.0
2015-Aug-29 15:25N 54°42' W 001°00'0 0.0
2015-Aug-29 14:31N 54°42' W 001°00'0 0.1
2015-Aug-29 13:31N 54°42' W 001°00'0 0.0
2015-Aug-29 12:31N 54°42' W 001°00'0 0.1
2015-Aug-29 11:31N 54°42' W 001°01'0 0.0
2015-Aug-29 10:31N 54°42' W 001°01'0 0.1
2015-Aug-29 09:30N 54°42' W 001°01'2 2.1
2015-Aug-29 08:33N 54°42' W 000°57'7 6.6
2015-Aug-29 07:33N 54°40' W 000°47'6 6.2
2015-Aug-29 06:34N 54°38' W 000°37'6 5.1
2015-Aug-29 05:27N 54°35' W 000°28'4 4.5
2015-Aug-29 04:33N 54°33' W 000°22'4 4.3
2015-Aug-29 03:33N 54°31' W 000°15'4 4.3
2015-Aug-29 02:33N 54°29' W 000°09'4 4.3
2015-Aug-29 01:34N 54°28' W 000°01'5 4.7
2015-Aug-29 00:33N 54°26' E 000°06'5 5.4
2015-Aug-28 23:33N 54°23' E 000°14'6 5.7
2015-Aug-28 22:33N 54°21' E 000°23'6 6.3
2015-Aug-28 21:33N 54°19' E 000°33'6 6.5
2015-Aug-28 20:33N 54°16' E 000°43'6 6.3
2015-Aug-28 19:33N 54°13' E 000°53'170 4.7
2015-Aug-27 07:13N 51°30' E 002°13'3 4.9
2015-Aug-27 06:30N 51°27' E 002°10'4 4.6
2015-Aug-27 05:33N 51°24' E 002°05'4 4.5
2015-Aug-27 04:34N 51°21' E 002°00'5 4.9
2015-Aug-27 03:33N 51°17' E 001°55'6 5.7
2015-Aug-27 02:33N 51°13' E 001°49'6 6.3
2015-Aug-27 01:34N 51°08' E 001°43'7 7.0
2015-Aug-27 00:33N 51°03' E 001°36'8 7.8
2015-Aug-26 23:33N 50°57' E 001°27'8 7.8
2015-Aug-26 22:33N 50°49' E 001°24'11 7.4
2015-Aug-26 21:06N 50°40' E 001°17'6 9.3
2015-Aug-26 20:24N 50°35' E 001°09'70 7.9
2015-Aug-26 11:33N 49°52' W 000°17'8 7.7
2015-Aug-26 10:33N 49°44' W 000°14'8 8.1
2015-Aug-26 09:33N 49°37' W 000°11'1010.0
2015-Aug-26 08:33N 49°30' E 000°00'6 6.0
2015-Aug-26 07:32N 49°28' E 000°09'0 0.0
2015-Aug-26 06:31N 49°28' E 000°09'0 0.0
2015-Aug-26 05:31N 49°28' E 000°09'0 0.0
2015-Aug-26 04:31N 49°28' E 000°09'0 0.0
2015-Aug-26 03:31N 49°28' E 000°09'0 0.0
2015-Aug-26 02:31N 49°28' E 000°09'0 0.0
2015-Aug-26 01:31N 49°28' E 000°09'0 0.0
2015-Aug-26 00:31N 49°28' E 000°09'0 0.0
2015-Aug-25 23:31N 49°28' E 000°09'0 0.0
2015-Aug-25 22:31N 49°28' E 000°09'0 0.0
2015-Aug-25 21:31N 49°28' E 000°09'0 0.0
2015-Aug-25 20:31N 49°28' E 000°09'0 0.0
2015-Aug-25 19:31N 49°28' E 000°09'0 0.0
2015-Aug-25 18:31N 49°28' E 000°09'0 0.0
2015-Aug-25 17:31N 49°28' E 000°09'0 0.0
2015-Aug-25 16:31N 49°28' E 000°09'0 0.0
2015-Aug-25 15:31N 49°28' E 000°09'0 0.0
2015-Aug-25 14:31N 49°28' E 000°09'0 0.0
2015-Aug-25 13:31N 49°28' E 000°09'0 0.0
2015-Aug-25 12:31N 49°28' E 000°09'0 0.0
2015-Aug-25 11:31N 49°28' E 000°09'0 0.0
2015-Aug-25 10:31N 49°28' E 000°09'0 0.0
2015-Aug-25 09:31N 49°28' E 000°09'0 0.0
2015-Aug-25 08:31N 49°28' E 000°09'0 0.0
2015-Aug-25 07:31N 49°28' E 000°09'0 0.0
2015-Aug-25 06:31N 49°28' E 000°09'0 0.0
2015-Aug-25 05:31N 49°28' E 000°09'0 0.0
2015-Aug-25 04:31N 49°28' E 000°09'0 0.1
2015-Aug-25 03:33N 49°28' E 000°09'7 6.8
2015-Aug-25 02:33N 49°30' W 000°01'9 9.0
2015-Aug-25 01:33N 49°33' W 000°14'  
Track history (hours):
 
Tides and Currents Weather Stations Pressure Air Temp Water Temp Dewpoint Dewpoint Depression Visibility Wind Speed Wind Dir Waves Ship Positions

Hildegaard

Last reported at 2015-Sep-04 01:31 UTC. Time now 2015-Sep-04 01:39 UTC.
Position N 54°02' E 000°00'.

Length 248 m; draft 8.6 m.

Type: Ship (hazmat cat A). MMSI: 308574000.

Date/timePositionNaut miles runAvg speedWind from/ knotsBaromVisibWave heightAir tempDewpointWater temp
2015-Sep-04 01:31N 54°02' E 000°00'0 0.0
2015-Sep-04 00:32N 54°02' E 000°00'0 0.0
2015-Sep-03 23:16N 54°02' E 000°00'0 0.1
2015-Sep-03 22:31N 54°02' W 000°00'0 0.0
2015-Sep-03 21:31N 54°02' W 000°00'0 0.0
2015-Sep-03 20:31N 54°02' W 000°00'0 0.0
2015-Sep-03 19:28N 54°02' W 000°00'0 0.0
2015-Sep-03 18:31N 54°02' W 000°00'0 0.0
2015-Sep-03 17:31N 54°02' W 000°00'0 0.0
2015-Sep-03 16:31N 54°02' W 000°00'0 0.0
2015-Sep-03 15:33N 54°02' W 000°00'4 3.6
2015-Sep-03 14:33N 53°59' E 000°04'5 5.4
2015-Sep-03 13:33N 53°54' E 000°09'5 4.8
2015-Sep-03 12:33N 53°51' E 000°14'5 5.2
2015-Sep-03 11:33N 53°47' E 000°19'5 5.2
2015-Sep-03 10:33N 53°42' E 000°23'9 8.6
2015-Sep-03 09:33N 53°34' E 000°17'1010.1
2015-Sep-03 08:33N 53°35' W 000°00'6 6.0
2015-Sep-03 07:32N 53°38' W 000°10'0 0.0
2015-Sep-03 06:32N 53°38' W 000°10'0 0.0
2015-Sep-03 05:32N 53°38' W 000°10'0 0.0
2015-Sep-03 04:32N 53°38' W 000°10'0 0.0
2015-Sep-03 03:32N 53°38' W 000°10'0 0.0
2015-Sep-03 02:32N 53°38' W 000°10'0 0.0
2015-Sep-03 01:32N 53°38' W 000°10'0 0.0
2015-Sep-03 00:32N 53°38' W 000°10'0 0.0
2015-Sep-02 23:32N 53°38' W 000°10'0 0.0
2015-Sep-02 22:32N 53°38' W 000°10'0 0.0
2015-Sep-02 21:32N 53°38' W 000°10'0 0.0
2015-Sep-02 20:32N 53°38' W 000°10'0 0.0
2015-Sep-02 19:32N 53°38' W 000°10'0 0.0
2015-Sep-02 18:32N 53°38' W 000°10'0 0.0
2015-Sep-02 17:29N 53°38' W 000°10'0 0.0
2015-Sep-02 16:32N 53°38' W 000°10'0 0.0
2015-Sep-02 15:32N 53°38' W 000°10'0 0.0
2015-Sep-02 14:29N 53°38' W 000°10'0 0.0
2015-Sep-02 13:32N 53°38' W 000°10'0 0.0
2015-Sep-02 12:32N 53°38' W 000°10'0 0.0
2015-Sep-02 11:32N 53°38' W 000°10'0 0.0
2015-Sep-02 10:32N 53°38' W 000°10'0 0.0
2015-Sep-02 09:32N 53°38' W 000°10'0 0.0
2015-Sep-02 08:32N 53°38' W 000°10'0 0.0
2015-Sep-02 07:32N 53°38' W 000°10'0 0.0
2015-Sep-02 06:32N 53°38' W 000°10'0 0.0
2015-Sep-02 05:32N 53°38' W 000°10'0 0.0
2015-Sep-02 04:32N 53°38' W 000°10'0 0.0
2015-Sep-02 03:32N 53°38' W 000°10'0 0.0
2015-Sep-02 02:32N 53°38' W 000°10'0 0.0
2015-Sep-02 01:32N 53°38' W 000°10'0 0.0
2015-Sep-02 00:32N 53°38' W 000°10'0 0.0
2015-Sep-01 23:32N 53°38' W 000°10'0 0.0
2015-Sep-01 22:32N 53°38' W 000°10'0 0.0
2015-Sep-01 21:32N 53°38' W 000°10'0 0.0
2015-Sep-01 20:34N 53°38' W 000°10'2 1.7
2015-Sep-01 19:33N 53°37' W 000°07'8 7.6
2015-Sep-01 18:33N 53°35' E 000°05'8 8.3
2015-Sep-01 17:33N 53°36' E 000°19'5 4.8
2015-Sep-01 16:33N 53°40' E 000°24'5 4.8
2015-Sep-01 15:30N 53°45' E 000°26'7 7.2
2015-Sep-01 14:33N 53°51' E 000°21'6 6.2
2015-Sep-01 13:33N 53°57' E 000°18'1 1.0
2015-Sep-01 12:34N 53°58' E 000°18'1 0.8
2015-Sep-01 11:33N 53°57' E 000°18'1 1.0
2015-Sep-01 10:33N 53°56' E 000°19'1 0.7
2015-Sep-01 09:33N 53°57' E 000°18'8 8.3
2015-Sep-01 08:33N 54°04' E 000°13'1212.1
2015-Sep-01 07:34N 54°14' W 000°01'1313.0
2015-Sep-01 06:34N 54°24' W 000°14'1313.5
2015-Sep-01 05:34N 54°35' W 000°29'1313.0
2015-Sep-01 04:32N 54°40' W 000°50'1010.2
2015-Sep-01 03:33N 54°40' W 001°07'3 3.2
2015-Sep-01 02:31N 54°37' W 001°10'0 0.0
2015-Sep-01 01:29N 54°37' W 001°10'0 0.0
2015-Aug-31 23:26N 54°37' W 001°10'0 0.0
2015-Aug-31 22:29N 54°37' W 001°10'0 0.0
2015-Aug-31 20:32N 54°37' W 001°10'0 0.0
2015-Aug-31 19:29N 54°37' W 001°10'0 0.0
2015-Aug-31 16:09N 54°37' W 001°10'0 0.0
2015-Aug-31 15:23N 54°37' W 001°10'0 0.0
2015-Aug-31 14:26N 54°37' W 001°10'0 0.0
2015-Aug-31 13:26N 54°37' W 001°10'0 0.0
2015-Aug-31 12:23N 54°37' W 001°10'0 0.0
2015-Aug-31 11:14N 54°37' W 001°10'0 0.0
2015-Aug-31 10:29N 54°37' W 001°10'0 0.0
2015-Aug-31 09:14N 54°37' W 001°10'0 0.0
2015-Aug-31 08:32N 54°37' W 001°10'0 0.0
2015-Aug-31 07:29N 54°37' W 001°10'1 0.6
2015-Aug-31 06:33N 54°38' W 001°09'6 6.0
2015-Aug-31 05:33N 54°43' W 001°04'2 2.1
2015-Aug-31 04:31N 54°42' W 001°00'0 0.0
2015-Aug-31 03:31N 54°42' W 001°00'0 0.0
2015-Aug-31 02:31N 54°42' W 001°00'0 0.1
2015-Aug-31 01:31N 54°42' W 001°01'0 0.2
2015-Aug-31 00:31N 54°42' W 001°01'0 0.0
2015-Aug-30 23:28N 54°42' W 001°01'0 0.0
2015-Aug-30 22:28N 54°42' W 001°01'0 0.0
2015-Aug-30 21:28N 54°42' W 001°01'0 0.0
2015-Aug-30 20:31N 54°42' W 001°01'0 0.0
2015-Aug-30 19:31N 54°42' W 001°01'0 0.1
2015-Aug-30 18:28N 54°42' W 001°01'0 0.2
2015-Aug-30 17:31N 54°42' W 001°01'0 0.1
2015-Aug-30 16:31N 54°42' W 001°00'0 0.0
2015-Aug-30 15:31N 54°42' W 001°00'0 0.1
2015-Aug-30 14:31N 54°42' W 001°00'0 0.2
2015-Aug-30 13:28N 54°42' W 001°01'0 0.0
2015-Aug-30 12:31N 54°42' W 001°01'0 0.0
2015-Aug-30 11:31N 54°42' W 001°01'0 0.0
2015-Aug-30 10:31N 54°42' W 001°01'0 0.0
2015-Aug-30 09:31N 54°42' W 001°01'0 0.0
2015-Aug-30 08:31N 54°42' W 001°01'0 0.0
2015-Aug-30 07:31N 54°42' W 001°01'0 0.2
2015-Aug-30 06:25N 54°42' W 001°00'0 0.1
2015-Aug-30 05:31N 54°42' W 001°00'0 0.0
2015-Aug-30 04:31N 54°42' W 001°00'0 0.0
2015-Aug-30 03:31N 54°42' W 001°00'0 0.0
2015-Aug-30 02:31N 54°42' W 001°00'0 0.0
2015-Aug-30 01:22N 54°42' W 001°00'0 0.2
2015-Aug-30 00:31N 54°42' W 001°00'0 0.1
2015-Aug-29 23:31N 54°42' W 001°01'0 0.0
2015-Aug-29 22:31N 54°42' W 001°01'0 0.0
2015-Aug-29 21:31N 54°42' W 001°01'0 0.0
2015-Aug-29 20:28N 54°42' W 001°01'0 0.1
2015-Aug-29 19:31N 54°42' W 001°00'0 0.1
2015-Aug-29 18:31N 54°42' W 001°00'0 0.1
2015-Aug-29 17:31N 54°42' W 001°00'0 0.0
2015-Aug-29 16:31N 54°42' W 001°00'0 0.0
2015-Aug-29 15:25N 54°42' W 001°00'0 0.0
2015-Aug-29 14:31N 54°42' W 001°00'0 0.1
2015-Aug-29 13:31N 54°42' W 001°00'0 0.0
2015-Aug-29 12:31N 54°42' W 001°00'0 0.1
2015-Aug-29 11:31N 54°42' W 001°01'0 0.0
2015-Aug-29 10:31N 54°42' W 001°01'0 0.1
2015-Aug-29 09:30N 54°42' W 001°01'2 2.1
2015-Aug-29 08:33N 54°42' W 000°57'7 6.6
2015-Aug-29 07:33N 54°40' W 000°47'6 6.2
2015-Aug-29 06:34N 54°38' W 000°37'6 5.1
2015-Aug-29 05:27N 54°35' W 000°28'4 4.5
2015-Aug-29 04:33N 54°33' W 000°22'4 4.3
2015-Aug-29 03:33N 54°31' W 000°15'4 4.3
2015-Aug-29 02:33N 54°29' W 000°09'4 4.3
2015-Aug-29 01:34N 54°28' W 000°01'5 4.7
2015-Aug-29 00:33N 54°26' E 000°06'5 5.4
2015-Aug-28 23:33N 54°23' E 000°14'6 5.7
2015-Aug-28 22:33N 54°21' E 000°23'6 6.3
2015-Aug-28 21:33N 54°19' E 000°33'6 6.5
2015-Aug-28 20:33N 54°16' E 000°43'6 6.3
2015-Aug-28 19:33N 54°13' E 000°53'170 4.7
2015-Aug-27 07:13N 51°30' E 002°13'3 4.9
2015-Aug-27 06:30N 51°27' E 002°10'4 4.6
2015-Aug-27 05:33N 51°24' E 002°05'4 4.5
2015-Aug-27 04:34N 51°21' E 002°00'5 4.9
2015-Aug-27 03:33N 51°17' E 001°55'6 5.7
2015-Aug-27 02:33N 51°13' E 001°49'6 6.3
2015-Aug-27 01:34N 51°08' E 001°43'7 7.0
2015-Aug-27 00:33N 51°03' E 001°36'8 7.8
2015-Aug-26 23:33N 50°57' E 001°27'8 7.8
2015-Aug-26 22:33N 50°49' E 001°24'11 7.4
2015-Aug-26 21:06N 50°40' E 001°17'6 9.3
2015-Aug-26 20:24N 50°35' E 001°09'70 7.9
2015-Aug-26 11:33N 49°52' W 000°17'8 7.7
2015-Aug-26 10:33N 49°44' W 000°14'8 8.1
2015-Aug-26 09:33N 49°37' W 000°11'1010.0
2015-Aug-26 08:33N 49°30' E 000°00'6 6.0
2015-Aug-26 07:32N 49°28' E 000°09'0 0.0
2015-Aug-26 06:31N 49°28' E 000°09'0 0.0
2015-Aug-26 05:31N 49°28' E 000°09'0 0.0
2015-Aug-26 04:31N 49°28' E 000°09'0 0.0
2015-Aug-26 03:31N 49°28' E 000°09'0 0.0
2015-Aug-26 02:31N 49°28' E 000°09'0 0.0
2015-Aug-26 01:31N 49°28' E 000°09'0 0.0
2015-Aug-26 00:31N 49°28' E 000°09'0 0.0
2015-Aug-25 23:31N 49°28' E 000°09'0 0.0
2015-Aug-25 22:31N 49°28' E 000°09'0 0.0
2015-Aug-25 21:31N 49°28' E 000°09'0 0.0
2015-Aug-25 20:31N 49°28' E 000°09'0 0.0
2015-Aug-25 19:31N 49°28' E 000°09'0 0.0
2015-Aug-25 18:31N 49°28' E 000°09'0 0.0
2015-Aug-25 17:31N 49°28' E 000°09'0 0.0
2015-Aug-25 16:31N 49°28' E 000°09'0 0.0
2015-Aug-25 15:31N 49°28' E 000°09'0 0.0
2015-Aug-25 14:31N 49°28' E 000°09'0 0.0
2015-Aug-25 13:31N 49°28' E 000°09'0 0.0
2015-Aug-25 12:31N 49°28' E 000°09'0 0.0
2015-Aug-25 11:31N 49°28' E 000°09'0 0.0
2015-Aug-25 10:31N 49°28' E 000°09'0 0.0
2015-Aug-25 09:31N 49°28' E 000°09'0 0.0
2015-Aug-25 08:31N 49°28' E 000°09'0 0.0
2015-Aug-25 07:31N 49°28' E 000°09'0 0.0
2015-Aug-25 06:31N 49°28' E 000°09'0 0.0
2015-Aug-25 05:31N 49°28' E 000°09'0 0.0
2015-Aug-25 04:31N 49°28' E 000°09'0 0.1
2015-Aug-25 03:33N 49°28' E 000°09'7 6.8
2015-Aug-25 02:33N 49°30' W 000°01'9 9.0
2015-Aug-25 01:33N 49°33' W 000°14'  

Dump ship's entire track history